Time;durP1;ratioP1;P1;durP2;ratioP2;P2;SDS_P1;SDS_P2;PMS_P1;PMS_P2;Temp;Humidity;BMP_temperature;BMP_pressure;BME280_temperature;BME280_humidity;BME280_pressure;Samples;Min_cycle;Max_cycle;Signal;HPM_P1;HPM_P2
2022/07/04 05:00:17;;;;;;;5.20;2.50;;;21.60;97.20;;;;;;1737717;28;20709;-74
2022/07/04 05:01:08;;;;;;;3.25;2.35;;;21.60;97.20;;;;;;1738854;28;20253;-74
2022/07/04 05:02:00;;;;;;;2.60;1.93;;;21.60;97.20;;;;;;1740869;28;20249;-74
2022/07/04 05:02:51;;;;;;;3.30;2.15;;;21.60;97.20;;;;;;1740860;28;20225;-75
2022/07/04 05:03:43;;;;;;;4.57;2.47;;;21.60;97.20;;;;;;1741117;28;20673;-74
2022/07/04 05:04:34;;;;;;;2.45;2.25;;;21.60;97.20;;;;;;1740910;28;20191;-74
2022/07/04 05:05:26;;;;;;;3.77;2.43;;;21.60;97.20;;;;;;1741185;28;20208;-74
2022/07/04 05:06:18;;;;;;;3.75;2.90;;;21.60;97.20;;;;;;1741067;28;20221;-75
2022/07/04 05:07:09;;;;;;;2.42;2.22;;;21.70;97.20;;;;;;1740782;28;20191;-74
2022/07/04 05:08:00;;;;;;;3.75;2.20;;;21.70;97.20;;;;;;1741119;28;20203;-75
2022/07/04 05:08:52;;;;;;;2.60;2.30;;;21.70;97.20;;;;;;1747124;28;20297;-75
2022/07/04 05:09:43;;;;;;;3.00;2.28;;;21.70;97.20;;;;;;1747852;28;20222;-75
2022/07/04 05:10:35;;;;;;;6.60;2.20;;;21.70;97.20;;;;;;1743427;28;20201;-75
2022/07/04 05:11:26;;;;;;;3.25;2.03;;;21.70;97.20;;;;;;1749920;28;20581;-74
2022/07/04 05:12:18;;;;;;;3.38;2.20;;;21.70;97.20;;;;;;1745522;28;20712;-74
2022/07/04 05:13:09;;;;;;;2.60;1.88;;;21.70;97.20;;;;;;1746813;28;20726;-75
2022/07/04 05:14:01;;;;;;;3.63;2.10;;;21.70;97.20;;;;;;1747873;28;20639;-75
2022/07/04 05:14:52;;;;;;;3.17;2.17;;;21.70;97.20;;;;;;1744695;28;20196;-75
2022/07/04 05:15:46;;;;;;;3.33;2.25;;;21.70;97.20;;;;;;1742660;28;20199;-75
2022/07/04 05:16:36;;;;;;;2.80;2.22;;;21.70;97.20;;;;;;1747495;28;20205;-75
2022/07/04 05:17:28;;;;;;;4.70;2.33;;;21.60;97.20;;;;;;1747777;28;20677;-75
2022/07/04 05:18:19;;;;;;;4.85;1.90;;;21.60;97.20;;;;;;1747691;28;20589;-75
2022/07/04 05:19:10;;;;;;;2.43;2.00;;;21.60;97.20;;;;;;1747697;28;20199;-75
2022/07/04 05:20:02;;;;;;;3.25;2.42;;;21.60;97.20;;;;;;1747621;28;20567;-74
2022/07/04 05:20:54;;;;;;;4.50;2.60;;;21.60;97.20;;;;;;1745866;28;20195;-75
2022/07/04 05:21:45;;;;;;;3.03;2.60;;;21.60;97.20;;;;;;1747635;28;20231;-75
2022/07/04 05:22:37;;;;;;;2.43;2.00;;;21.60;97.20;;;;;;1747694;28;20202;-74
2022/07/04 05:23:28;;;;;;;2.38;2.17;;;21.60;97.20;;;;;;1747847;28;20213;-74
2022/07/04 05:24:20;;;;;;;4.80;2.23;;;21.60;97.20;;;;;;1747844;28;20202;-75
2022/07/04 05:25:10;;;;;;;2.30;2.08;;;21.60;97.20;;;;;;1747920;28;20214;-75
2022/07/04 05:26:02;;;;;;;4.20;2.80;;;21.60;97.20;;;;;;1747823;28;20195;-75
2022/07/04 05:26:53;;;;;;;2.97;2.17;;;21.60;97.20;;;;;;1747535;28;20198;-74
2022/07/04 05:27:45;;;;;;;5.67;2.30;;;21.60;97.20;;;;;;1747850;28;20288;-74
2022/07/04 05:28:35;;;;;;;2.55;2.35;;;21.60;97.20;;;;;;1747656;28;20218;-74
2022/07/04 05:29:27;;;;;;;3.43;2.40;;;21.60;97.20;;;;;;1747470;28;20218;-75
2022/07/04 05:30:18;;;;;;;6.43;2.63;;;21.70;97.20;;;;;;1747587;28;20194;-75
2022/07/04 05:31:11;;;;;;;2.70;2.40;;;21.70;97.20;;;;;;1747463;28;20285;-75
2022/07/04 05:32:02;;;;;;;3.58;2.80;;;21.70;97.20;;;;;;1745449;28;20217;-75
2022/07/04 05:32:54;;;;;;;2.72;2.50;;;21.70;97.20;;;;;;1747537;28;20183;-75
2022/07/04 05:33:45;;;;;;;2.53;2.28;;;21.70;97.20;;;;;;1747585;28;20191;-74
2022/07/04 05:34:37;;;;;;;4.80;2.80;;;21.70;97.20;;;;;;1747861;28;20222;-75
2022/07/04 05:35:27;;;;;;;4.05;2.60;;;21.70;97.20;;;;;;1747532;28;20255;-75
2022/07/04 05:36:20;;;;;;;4.40;2.13;;;21.70;97.20;;;;;;1747516;28;20206;-75
2022/07/04 05:37:11;;;;;;;4.80;1.80;;;21.70;97.20;;;;;;1747495;28;20206;-75
2022/07/04 05:38:03;;;;;;;3.73;2.30;;;21.70;97.20;;;;;;1747815;28;20247;-75
2022/07/04 05:38:54;;;;;;;3.83;2.40;;;21.70;97.20;;;;;;1747545;28;20233;-75
2022/07/04 05:39:46;;;;;;;5.03;2.50;;;21.70;97.20;;;;;;1746946;28;20277;-75
2022/07/04 05:40:36;;;;;;;4.72;2.20;;;21.70;97.20;;;;;;1746642;28;20190;-75
2022/07/04 05:41:28;;;;;;;3.67;2.77;;;21.70;97.20;;;;;;1747917;28;20286;-75
2022/07/04 05:42:19;;;;;;;2.80;2.20;;;21.70;97.20;;;;;;1747745;28;20205;-75
2022/07/04 05:43:11;;;;;;;3.55;2.58;;;21.60;97.20;;;;;;1741869;28;20202;-74
2022/07/04 05:44:02;;;;;;;3.92;2.30;;;21.60;97.20;;;;;;1742801;28;20203;-75
2022/07/04 05:44:54;;;;;;;3.10;2.10;;;21.60;97.20;;;;;;1747808;28;20190;-75
2022/07/04 05:45:45;;;;;;;2.83;2.13;;;21.60;97.20;;;;;;1747766;28;20436;-75
2022/07/04 05:46:38;;;;;;;2.00;1.90;;;21.60;97.20;;;;;;1747452;28;20205;-75
2022/07/04 05:47:29;;;;;;;1.92;1.83;;;21.60;97.20;;;;;;1747744;28;20444;-75
2022/07/04 05:48:21;;;;;;;2.13;1.93;;;21.60;97.20;;;;;;1747634;28;20277;-75
2022/07/04 05:49:12;;;;;;;3.08;1.90;;;21.60;97.20;;;;;;1747518;28;20436;-74
2022/07/04 05:50:04;;;;;;;4.45;2.08;;;21.60;97.20;;;;;;1744717;28;20222;-75
2022/07/04 05:50:56;;;;;;;2.78;2.38;;;21.60;97.20;;;;;;1745412;28;20201;-75
2022/07/04 05:51:46;;;;;;;3.10;2.00;;;21.70;97.20;;;;;;1747270;28;20194;-75
2022/07/04 05:52:38;;;;;;;5.03;2.20;;;21.70;97.20;;;;;;1747426;28;20194;-75
2022/07/04 05:53:29;;;;;;;2.55;2.20;;;21.70;97.20;;;;;;1747600;28;20214;-75
2022/07/04 05:54:21;;;;;;;4.05;2.25;;;21.70;97.20;;;;;;1747690;28;20735;-75
2022/07/04 05:55:12;;;;;;;2.88;1.90;;;21.70;97.20;;;;;;1747355;28;20202;-75
2022/07/04 05:56:04;;;;;;;3.33;2.00;;;21.80;97.20;;;;;;1747227;28;20729;-75
2022/07/04 05:56:55;;;;;;;2.35;2.15;;;21.80;97.20;;;;;;1747114;28;20814;-75
2022/07/04 05:57:46;;;;;;;7.90;2.73;;;21.80;97.20;;;;;;1747308;28;20273;-75
2022/07/04 05:58:37;;;;;;;2.47;1.77;;;21.80;97.20;;;;;;1746965;28;20233;-75
2022/07/04 05:59:29;;;;;;;3.80;2.10;;;21.80;97.20;;;;;;1747407;28;20285;-74
2022/07/04 06:00:20;;;;;;;2.70;1.75;;;21.90;97.20;;;;;;1747095;28;20289;-75
2022/07/04 06:01:12;;;;;;;2.37;1.83;;;21.90;97.20;;;;;;1747158;28;20210;-75
2022/07/04 06:02:04;;;;;;;2.60;2.25;;;21.90;97.20;;;;;;1747045;28;20951;-75
2022/07/04 06:02:56;;;;;;;2.60;2.40;;;21.90;97.20;;;;;;1747336;28;20209;-74
2022/07/04 06:03:47;;;;;;;2.45;1.70;;;21.90;97.20;;;;;;1747672;28;20277;-75
2022/07/04 06:04:39;;;;;;;1.98;1.77;;;21.90;97.20;;;;;;1747549;28;20259;-75
2022/07/04 06:05:31;;;;;;;3.13;2.30;;;21.90;97.20;;;;;;1747813;28;20745;-75
2022/07/04 06:06:23;;;;;;;2.55;2.35;;;21.90;97.20;;;;;;1747636;28;20618;-75
2022/07/04 06:07:13;;;;;;;5.80;2.30;;;21.90;97.20;;;;;;1747453;28;20198;-75
2022/07/04 06:08:05;;;;;;;2.17;1.97;;;21.90;97.20;;;;;;1747692;28;20195;-76
2022/07/04 06:08:56;;;;;;;4.75;2.00;;;22.00;97.20;;;;;;1747584;28;20218;-75
2022/07/04 06:09:48;;;;;;;2.60;1.90;;;22.00;97.20;;;;;;1746586;28;20218;-75
2022/07/04 06:10:38;;;;;;;2.28;1.90;;;22.00;97.20;;;;;;1745191;28;20206;-77
2022/07/04 06:11:30;;;;;;;3.30;1.90;;;22.00;97.20;;;;;;1747247;28;20273;-77
2022/07/04 06:12:21;;;;;;;2.50;1.90;;;22.00;97.20;;;;;;1747109;28;20198;-76
2022/07/04 06:13:13;;;;;;;2.23;2.03;;;22.10;97.20;;;;;;1747206;28;20277;-76
2022/07/04 06:14:04;;;;;;;2.92;1.80;;;22.10;97.20;;;;;;1747071;28;20582;-77
2022/07/04 06:14:56;;;;;;;4.25;2.45;;;22.10;97.20;;;;;;1747144;28;20237;-76
2022/07/04 06:15:47;;;;;;;2.78;1.70;;;22.10;97.20;;;;;;1747185;28;20203;-80
2022/07/04 06:16:39;;;;;;;1.98;1.80;;;22.10;97.20;;;;;;1746861;28;20191;-76
2022/07/04 06:17:31;;;;;;;2.80;2.10;;;22.20;97.20;;;;;;1747434;28;20206;-76
2022/07/04 06:18:23;;;;;;;3.85;2.20;;;22.20;97.20;;;;;;1744995;28;20248;-77
2022/07/04 06:19:14;;;;;;;2.50;2.10;;;22.20;97.20;;;;;;1747344;28;20605;-76
2022/07/04 06:20:07;;;;;;;3.50;2.10;;;22.20;97.20;;;;;;1742047;28;20608;-75
2022/07/04 06:20:58;;;;;;;3.08;2.20;;;22.20;97.20;;;;;;1747654;28;20195;-76
2022/07/04 06:21:49;;;;;;;3.70;2.50;;;22.20;97.20;;;;;;1747672;28;20285;-76
2022/07/04 06:22:41;;;;;;;2.03;1.67;;;22.20;97.20;;;;;;1747736;28;20206;-76
2022/07/04 06:23:33;;;;;;;2.38;1.70;;;22.20;97.20;;;;;;1747641;28;20552;-77
2022/07/04 06:24:24;;;;;;;2.30;2.00;;;22.20;97.20;;;;;;1747693;28;20221;-76
2022/07/04 06:25:17;;;;;;;2.23;1.80;;;22.30;97.20;;;;;;1747655;28;20309;-76
2022/07/04 06:26:09;;;;;;;2.65;2.40;;;22.30;97.20;;;;;;1747670;28;20207;-76
2022/07/04 06:27:00;;;;;;;2.65;2.10;;;22.30;97.20;;;;;;1747383;28;20650;-76
2022/07/04 06:27:52;;;;;;;3.17;2.13;;;22.30;97.20;;;;;;1747538;28;20689;-76
2022/07/04 06:28:43;;;;;;;2.90;2.10;;;22.30;97.20;;;;;;1747704;28;20276;-76
2022/07/04 06:29:35;;;;;;;3.38;2.00;;;22.30;97.20;;;;;;1747089;28;20198;-77
2022/07/04 06:30:27;;;;;;;2.35;2.15;;;22.40;97.20;;;;;;1740705;28;20223;-76
2022/07/04 06:31:18;;;;;;;8.00;2.40;;;22.40;97.20;;;;;;1740780;28;20264;-76
2022/07/04 06:32:10;;;;;;;2.87;1.70;;;22.40;97.20;;;;;;1740820;28;20254;-76
2022/07/04 06:33:02;;;;;;;2.45;2.03;;;22.40;97.20;;;;;;1740680;28;20199;-77
2022/07/04 06:36:24;;;;;;;3.15;2.08;;;22.50;97.20;;;;;;1719646;28;20197;-76
2022/07/04 06:37:15;;;;;;;5.45;1.73;;;22.50;97.20;;;;;;1719260;28;20244;-76
2022/07/04 06:38:06;;;;;;;3.27;2.27;;;22.50;97.20;;;;;;1736489;28;20199;-76
2022/07/04 06:38:57;;;;;;;2.63;2.10;;;22.50;97.20;;;;;;1740619;28;20195;-76
2022/07/04 06:39:49;;;;;;;4.47;2.40;;;22.50;97.20;;;;;;1747011;28;20278;-76
2022/07/04 06:40:40;;;;;;;3.90;2.55;;;22.50;97.20;;;;;;1747591;28;20199;-76
2022/07/04 06:41:32;;;;;;;2.90;1.95;;;22.50;97.20;;;;;;1747685;28;20220;-76
2022/07/04 06:42:22;;;;;;;4.78;2.35;;;22.50;97.20;;;;;;1747679;28;20210;-77
2022/07/04 06:43:14;;;;;;;2.23;1.97;;;22.50;97.20;;;;;;1747588;28;20210;-76
2022/07/04 06:44:05;;;;;;;3.38;2.05;;;22.50;97.20;;;;;;1747694;28;20205;-76
2022/07/04 06:44:57;;;;;;;4.15;2.13;;;22.50;97.20;;;;;;1747527;28;20210;-76
2022/07/04 06:45:48;;;;;;;3.60;2.20;;;22.50;97.20;;;;;;1747256;28;20206;-77
2022/07/04 06:46:39;;;;;;;4.83;2.30;;;22.50;97.20;;;;;;1747383;28;20277;-77
2022/07/04 06:47:30;;;;;;;2.75;2.17;;;22.50;97.20;;;;;;1747586;28;20441;-76
2022/07/04 06:48:23;;;;;;;4.40;2.00;;;22.50;97.20;;;;;;1748513;28;20198;-76
2022/07/04 06:49:14;;;;;;;4.38;2.10;;;22.50;97.20;;;;;;1748496;28;20440;-76
2022/07/04 06:50:07;;;;;;;2.30;2.10;;;22.60;97.20;;;;;;1748731;28;20665;-77
2022/07/04 06:50:58;;;;;;;3.55;1.80;;;22.60;97.20;;;;;;1748773;28;20570;-76
2022/07/04 06:51:50;;;;;;;6.13;2.40;;;22.60;97.20;;;;;;1748805;28;20301;-77
2022/07/04 06:52:40;;;;;;;3.47;1.85;;;22.60;97.20;;;;;;1748861;28;20199;-76
2022/07/04 06:53:32;;;;;;;2.50;2.30;;;22.60;97.20;;;;;;1748937;28;20285;-76
2022/07/04 06:54:23;;;;;;;4.50;2.28;;;22.60;97.20;;;;;;1748866;28;20685;-77
2022/07/04 06:55:18;;;;;;;4.40;2.30;;;22.70;97.20;;;;;;1748886;28;20293;-76
2022/07/04 06:56:09;;;;;;;2.42;2.00;;;22.70;97.20;;;;;;1748819;28;20198;-76
2022/07/04 06:57:00;;;;;;;3.20;2.00;;;22.70;97.20;;;;;;1748505;28;20201;-77
2022/07/04 06:57:51;;;;;;;3.47;2.05;;;22.80;97.20;;;;;;1748697;28;20198;-77
2022/07/04 06:58:43;;;;;;;4.13;1.90;;;22.80;97.20;;;;;;1748674;28;20313;-76
2022/07/04 06:59:34;;;;;;;2.50;2.30;;;22.80;97.20;;;;;;1748530;28;20194;-75
2022/07/04 07:00:26;;;;;;;2.07;1.87;;;22.80;97.20;;;;;;1748707;28;20226;-76
2022/07/04 07:01:17;;;;;;;2.35;2.15;;;22.80;97.20;;;;;;1748657;28;20202;-76
2022/07/04 07:02:08;;;;;;;3.30;2.37;;;22.90;97.20;;;;;;1748729;28;20238;-76
2022/07/04 07:03:00;;;;;;;2.55;1.95;;;22.90;97.20;;;;;;1748666;28;20199;-77
2022/07/04 07:03:53;;;;;;;6.65;2.65;;;22.90;97.20;;;;;;1748718;28;20228;-76
2022/07/04 07:04:44;;;;;;;2.20;2.00;;;22.90;97.20;;;;;;1748760;28;20198;-76
2022/07/04 07:05:36;;;;;;;2.53;2.23;;;22.90;97.20;;;;;;1748643;28;20198;-75
2022/07/04 07:06:27;;;;;;;2.90;2.50;;;23.00;97.20;;;;;;1748618;28;20234;-76
2022/07/04 07:07:19;;;;;;;8.40;2.00;;;23.00;97.20;;;;;;1748480;28;20202;-76
2022/07/04 07:08:10;;;;;;;2.67;2.33;;;23.00;97.20;;;;;;1748519;28;20203;-76
2022/07/04 07:09:01;;;;;;;2.53;2.23;;;23.00;97.20;;;;;;1748749;28;20286;-76
2022/07/04 07:09:52;;;;;;;2.78;2.00;;;23.00;97.20;;;;;;1748375;28;20202;-76
2022/07/04 07:10:44;;;;;;;3.23;2.00;;;23.10;97.20;;;;;;1748741;28;20305;-75
2022/07/04 07:11:35;;;;;;;3.92;1.98;;;23.10;97.20;;;;;;1748384;28;20202;-76
2022/07/04 07:12:26;;;;;;;4.20;2.20;;;23.10;97.20;;;;;;1748752;28;20230;-77
2022/07/04 07:13:17;;;;;;;5.80;2.45;;;23.10;97.20;;;;;;1748650;28;20214;-76
2022/07/04 07:14:09;;;;;;;6.83;2.20;;;23.10;97.20;;;;;;1748745;28;20198;-77
2022/07/04 07:15:00;;;;;;;2.45;2.20;;;23.20;97.20;;;;;;1748675;28;20440;-77
2022/07/04 07:15:52;;;;;;;6.97;2.70;;;23.20;97.20;;;;;;1748661;28;20206;-76
2022/07/04 07:16:43;;;;;;;8.07;2.50;;;23.20;97.20;;;;;;1748326;28;20202;-76
2022/07/04 07:17:34;;;;;;;7.60;2.60;;;23.20;97.20;;;;;;1748655;28;20282;-76
2022/07/04 07:18:25;;;;;;;1.70;1.60;;;23.30;97.20;;;;;;1748569;28;20210;-76
2022/07/04 07:19:18;;;;;;;4.03;2.40;;;23.30;97.20;;;;;;1748550;28;20285;-77
2022/07/04 07:20:10;;;;;;;4.07;2.30;;;23.30;97.20;;;;;;1748633;28;20445;-75
2022/07/04 07:21:02;;;;;;;7.82;2.47;;;23.30;97.20;;;;;;1748622;28;20727;-75
2022/07/04 07:21:53;;;;;;;3.78;2.40;;;23.40;97.20;;;;;;1748344;28;20678;-76
2022/07/04 07:22:44;;;;;;;5.30;2.30;;;23.40;97.20;;;;;;1748619;28;20848;-76
2022/07/04 07:23:38;;;;;;;2.63;2.20;;;23.40;97.20;;;;;;1748326;28;20568;-76
2022/07/04 07:24:30;;;;;;;2.75;2.35;;;23.50;97.20;;;;;;1748636;28;20277;-76
2022/07/04 07:25:21;;;;;;;4.53;3.40;;;23.50;97.20;;;;;;1748650;28;20244;-76
2022/07/04 07:26:13;;;;;;;4.50;2.27;;;23.50;97.20;;;;;;1748560;28;20311;-76
2022/07/04 07:27:05;;;;;;;5.00;3.08;;;23.50;97.20;;;;;;1748292;28;20217;-77
2022/07/04 07:27:57;;;;;;;3.15;2.38;;;23.60;97.20;;;;;;1748526;28;20198;-76
2022/07/04 07:28:47;;;;;;;3.85;2.40;;;23.60;97.20;;;;;;1748555;28;20221;-76
2022/07/04 07:29:39;;;;;;;4.73;2.27;;;23.60;97.20;;;;;;1748557;28;20201;-76
2022/07/04 07:30:30;;;;;;;3.25;2.22;;;23.60;97.20;;;;;;1748542;28;20226;-77
2022/07/04 07:31:22;;;;;;;3.50;2.47;;;23.60;97.20;;;;;;1748551;28;20199;-76
2022/07/04 07:32:13;;;;;;;4.05;2.22;;;23.60;97.20;;;;;;1748285;28;20202;-77
2022/07/04 07:33:04;;;;;;;2.30;2.10;;;23.60;97.20;;;;;;1748739;28;20289;-76
2022/07/04 07:33:55;;;;;;;3.40;2.50;;;23.60;97.20;;;;;;1748424;28;20963;-75
2022/07/04 07:34:48;;;;;;;3.10;2.30;;;23.60;97.20;;;;;;1748649;28;20638;-76
2022/07/04 07:35:39;;;;;;;3.17;2.45;;;23.70;97.20;;;;;;1748580;28;20209;-76
2022/07/04 07:36:31;;;;;;;3.17;2.10;;;23.70;97.20;;;;;;1748542;28;20241;-76
2022/07/04 07:37:22;;;;;;;4.32;2.20;;;23.70;97.20;;;;;;1748257;28;20693;-76
2022/07/04 07:38:13;;;;;;;2.60;2.40;;;23.60;97.20;;;;;;1748347;28;20696;-77
2022/07/04 07:39:04;;;;;;;2.40;2.20;;;23.60;97.20;;;;;;1748503;28;20936;-76
2022/07/04 07:39:56;;;;;;;3.57;2.30;;;23.60;97.20;;;;;;1748453;28;20705;-76
2022/07/04 07:40:47;;;;;;;2.80;2.15;;;23.60;97.20;;;;;;1748567;28;20198;-76
2022/07/04 07:41:38;;;;;;;3.13;2.77;;;23.60;97.20;;;;;;1748126;28;20218;-76
2022/07/04 07:42:29;;;;;;;3.15;2.40;;;23.60;97.20;;;;;;1748454;28;20578;-76
2022/07/04 07:43:21;;;;;;;3.00;2.43;;;23.60;97.20;;;;;;1748503;28;20309;-76
2022/07/04 07:44:12;;;;;;;2.92;2.30;;;23.60;97.20;;;;;;1748469;28;20449;-76
2022/07/04 07:45:05;;;;;;;3.50;2.57;;;23.60;97.20;;;;;;1748487;28;20293;-76
2022/07/04 07:45:56;;;;;;;4.25;2.40;;;23.60;97.20;;;;;;1748360;28;20932;-76
2022/07/04 07:46:48;;;;;;;2.63;2.42;;;23.60;97.20;;;;;;1748220;28;20624;-77
2022/07/04 07:47:38;;;;;;;4.13;2.35;;;23.60;97.20;;;;;;1748355;28;20213;-76
2022/07/04 07:48:30;;;;;;;2.03;1.80;;;23.60;97.20;;;;;;1748423;28;20314;-77
2022/07/04 07:49:21;;;;;;;2.95;2.33;;;23.60;97.20;;;;;;1748498;28;20202;-76
2022/07/04 07:50:14;;;;;;;3.20;2.40;;;23.60;97.20;;;;;;1748365;28;20713;-76
2022/07/04 07:51:05;;;;;;;2.60;2.30;;;23.60;97.20;;;;;;1748446;28;20447;-77
2022/07/04 07:51:57;;;;;;;3.20;2.40;;;23.70;97.20;;;;;;1748089;28;20672;-76
2022/07/04 07:52:47;;;;;;;5.03;2.65;;;23.70;97.20;;;;;;1748416;28;20441;-76
2022/07/04 07:53:39;;;;;;;3.43;2.50;;;23.70;97.20;;;;;;1748371;28;20294;-76
2022/07/04 07:54:30;;;;;;;3.15;2.30;;;23.70;97.20;;;;;;1748354;28;20202;-76
2022/07/04 07:55:22;;;;;;;5.33;2.30;;;23.70;97.20;;;;;;1748492;28;20285;-75
2022/07/04 07:56:13;;;;;;;2.88;2.50;;;23.70;97.20;;;;;;1748364;28;20198;-75
2022/07/04 07:57:05;;;;;;;2.50;2.30;;;23.80;97.20;;;;;;1748097;28;20289;-76
2022/07/04 07:57:58;;;;;;;3.80;2.50;;;23.80;97.20;;;;;;1748158;28;20460;-77
2022/07/04 07:58:51;;;;;;;3.85;2.35;;;23.80;97.20;;;;;;1747755;28;20333;-75
2022/07/04 07:59:41;;;;;;;3.75;2.38;;;23.80;97.20;;;;;;1748388;28;20194;-76
2022/07/04 08:00:33;;;;;;;2.77;2.40;;;23.80;97.20;;;;;;1748367;28;20226;-76
2022/07/04 08:01:24;;;;;;;4.80;2.55;;;23.80;97.20;;;;;;1748435;28;20213;-76
2022/07/04 08:02:16;;;;;;;3.50;2.60;;;23.80;97.20;;;;;;1747978;28;20202;-76
2022/07/04 08:04:34;;;;;;;3.03;2.47;;;23.80;97.20;;;;;;1748473;28;20197;-76
2022/07/04 08:05:26;;;;;;;3.67;2.40;;;23.70;97.20;;;;;;1748510;28;20653;-76
2022/07/04 08:06:18;;;;;;;2.58;2.22;;;23.70;97.20;;;;;;1748202;28;20203;-76
2022/07/04 08:07:11;;;;;;;4.53;2.65;;;23.80;97.20;;;;;;1748092;28;20221;-76
2022/07/04 08:08:03;;;;;;;3.67;2.50;;;23.80;97.20;;;;;;1748246;28;20199;-77
2022/07/04 08:08:54;;;;;;;2.78;2.35;;;23.80;97.20;;;;;;1748162;28;20222;-76
2022/07/04 08:09:46;;;;;;;3.10;2.63;;;23.80;97.20;;;;;;1748302;28;20285;-76
2022/07/04 08:10:37;;;;;;;3.53;2.78;;;23.80;97.20;;;;;;1748152;28;20203;-76
2022/07/04 08:11:29;;;;;;;2.90;2.30;;;23.80;97.20;;;;;;1748397;28;20759;-77
2022/07/04 08:12:19;;;;;;;2.33;2.13;;;23.80;97.20;;;;;;1747863;28;20214;-77
2022/07/04 08:13:11;;;;;;;3.73;2.60;;;23.80;97.20;;;;;;1748255;28;20204;-76
2022/07/04 08:14:02;;;;;;;4.55;2.65;;;23.90;97.20;;;;;;1748389;28;20681;-76
2022/07/04 08:14:54;;;;;;;4.80;2.07;;;23.90;97.20;;;;;;1748322;28;20736;-76
2022/07/04 08:15:44;;;;;;;3.60;2.92;;;23.90;97.20;;;;;;1748239;28;20213;-75
2022/07/04 08:16:36;;;;;;;3.70;2.33;;;23.90;97.20;;;;;;1747931;28;20281;-76
2022/07/04 08:17:28;;;;;;;5.57;2.78;;;23.90;97.20;;;;;;1748247;28;20445;-75
2022/07/04 08:18:19;;;;;;;4.15;2.13;;;23.90;97.20;;;;;;1748011;28;20198;-76
2022/07/04 08:19:10;;;;;;;4.10;2.20;;;23.90;97.20;;;;;;1748265;28;20213;-77
2022/07/04 08:20:02;;;;;;;2.93;2.50;;;24.00;97.20;;;;;;1748222;28;20289;-76
2022/07/04 08:20:55;;;;;;;3.42;2.30;;;24.00;97.20;;;;;;1748210;28;20225;-76
2022/07/04 08:21:47;;;;;;;2.40;2.20;;;24.00;97.20;;;;;;1747940;28;20580;-76
2022/07/04 08:22:38;;;;;;;3.00;2.60;;;24.00;97.20;;;;;;1748244;28;20202;-77
2022/07/04 08:23:31;;;;;;;4.17;3.10;;;24.00;97.20;;;;;;1748177;28;20244;-76
2022/07/04 08:24:22;;;;;;;3.80;2.63;;;24.10;97.20;;;;;;1748170;28;20206;-76
2022/07/04 08:25:14;;;;;;;3.55;2.58;;;24.10;97.20;;;;;;1748209;28;20962;-76
2022/07/04 08:26:05;;;;;;;2.92;2.67;;;24.10;97.20;;;;;;1748241;28;20665;-76
2022/07/04 08:26:57;;;;;;;3.70;2.80;;;24.10;97.20;;;;;;1747803;28;20549;-76
2022/07/04 08:27:48;;;;;;;3.38;2.42;;;24.10;97.20;;;;;;1748181;28;20206;-76
2022/07/04 08:28:40;;;;;;;4.10;2.50;;;24.10;97.20;;;;;;1748064;28;20306;-76
2022/07/04 08:29:32;;;;;;;3.72;2.72;;;24.10;97.20;;;;;;1748188;28;20210;-77
2022/07/04 08:30:23;;;;;;;3.03;2.45;;;24.10;97.20;;;;;;1748247;28;20205;-76
2022/07/04 08:31:14;;;;;;;2.63;2.38;;;24.10;97.20;;;;;;1748067;28;20218;-76
2022/07/04 08:32:07;;;;;;;3.30;2.70;;;24.10;97.20;;;;;;1747898;28;20556;-76
2022/07/04 08:32:59;;;;;;;2.25;1.85;;;24.10;97.20;;;;;;1748105;28;20217;-76
2022/07/04 08:33:49;;;;;;;3.70;2.38;;;24.10;97.20;;;;;;1748195;28;20202;-76
2022/07/04 08:34:42;;;;;;;2.47;2.27;;;24.10;97.20;;;;;;1748105;28;20222;-77
2022/07/04 08:35:33;;;;;;;3.88;2.80;;;24.10;97.20;;;;;;1748163;28;20601;-75
2022/07/04 08:36:26;;;;;;;3.75;2.67;;;24.10;97.20;;;;;;1748207;28;20230;-76
2022/07/04 08:37:17;;;;;;;3.80;2.30;;;24.10;97.20;;;;;;1747821;28;20213;-76
2022/07/04 08:38:09;;;;;;;2.93;2.50;;;24.10;97.20;;;;;;1748034;28;20286;-76
2022/07/04 08:39:00;;;;;;;7.10;2.47;;;24.10;97.20;;;;;;1748151;28;20233;-76
2022/07/04 08:39:52;;;;;;;4.40;2.47;;;24.10;97.20;;;;;;1748018;28;20666;-76
2022/07/04 08:40:43;;;;;;;3.50;2.45;;;24.00;97.20;;;;;;1748176;28;20209;-76
2022/07/04 08:41:38;;;;;;;2.13;1.93;;;24.00;97.20;;;;;;1748104;28;20285;-76
2022/07/04 08:42:33;;;;;;;2.60;2.40;;;24.10;97.20;;;;;;1746736;28;20452;-77
2022/07/04 08:43:26;;;;;;;3.20;2.60;;;24.00;97.20;;;;;;1748218;28;20209;-76
2022/07/04 08:44:20;;;;;;;3.65;2.67;;;24.10;97.20;;;;;;1748009;28;20355;-76
2022/07/04 08:45:15;;;;;;;2.88;2.67;;;24.00;97.20;;;;;;1748124;28;20194;-77
2022/07/04 08:46:09;;;;;;;4.00;2.80;;;24.00;97.20;;;;;;1748034;28;20285;-76
2022/07/04 08:47:01;;;;;;;2.53;2.22;;;24.00;97.20;;;;;;1747687;28;20436;-76
2022/07/04 08:47:56;;;;;;;1.90;1.63;;;24.00;97.20;;;;;;1748017;28;20206;-76
2022/07/04 08:48:52;;;;;;;4.82;2.47;;;24.00;97.20;;;;;;1748035;28;20219;-77
2022/07/04 08:49:46;;;;;;;3.60;2.25;;;24.10;97.20;;;;;;1748119;28;20795;-76
2022/07/04 08:50:40;;;;;;;2.78;2.45;;;24.10;97.20;;;;;;1747856;28;20276;-77
2022/07/04 08:51:44;;;;;;;3.60;2.53;;;24.10;97.20;;;;;;1747974;28;20241;-76
2022/07/04 08:52:37;;;;;;;5.03;2.50;;;24.10;97.20;;;;;;1741085;28;20219;-76
2022/07/04 08:53:31;;;;;;;3.03;2.35;;;24.10;97.20;;;;;;1741173;28;20206;-76
2022/07/04 08:59:07;;;;;;;3.25;3.00;;;24.30;97.20;;;;;;1741338;28;20249;-76
2022/07/04 08:59:58;;;;;;;4.13;3.55;;;24.30;97.20;;;;;;1741174;28;20199;-77
2022/07/04 09:00:51;;;;;;;4.63;3.75;;;24.40;97.20;;;;;;1741048;28;20195;-76
2022/07/04 09:01:44;;;;;;;4.78;3.08;;;24.40;97.20;;;;;;1741023;28;20202;-76
2022/07/04 09:02:37;;;;;;;3.90;3.60;;;24.40;97.20;;;;;;1747734;28;20233;-76
2022/07/04 09:03:30;;;;;;;5.63;2.92;;;24.50;97.20;;;;;;1748023;28;20198;-76
2022/07/04 09:04:22;;;;;;;4.13;2.80;;;24.50;97.20;;;;;;1747955;28;20206;-76
2022/07/04 09:05:15;;;;;;;3.03;2.80;;;24.50;97.20;;;;;;1747962;28;20571;-76
2022/07/04 09:06:06;;;;;;;3.57;3.10;;;24.60;97.20;;;;;;1747857;28;20198;-76
2022/07/04 09:06:59;;;;;;;6.00;2.20;;;24.60;97.20;;;;;;1747631;28;20447;-76
2022/07/04 09:07:50;;;;;;;2.33;2.13;;;24.60;97.20;;;;;;1747816;28;20209;-77
2022/07/04 09:08:42;;;;;;;3.75;2.10;;;24.60;97.20;;;;;;1747853;28;20706;-77
2022/07/04 09:09:33;;;;;;;3.88;2.25;;;24.60;97.20;;;;;;1747920;28;20206;-76
2022/07/04 09:10:26;;;;;;;4.10;2.35;;;24.60;97.20;;;;;;1747495;28;20716;-75
2022/07/04 09:11:18;;;;;;;3.10;2.80;;;24.60;97.20;;;;;;1747498;28;20227;-76
2022/07/04 09:12:10;;;;;;;3.63;2.15;;;24.60;97.20;;;;;;1747620;28;20195;-76
2022/07/04 09:13:03;;;;;;;4.68;2.47;;;24.60;97.20;;;;;;1747907;28;20326;-76
2022/07/04 09:13:57;;;;;;;5.35;3.13;;;24.60;97.20;;;;;;1747964;28;20224;-77
2022/07/04 09:14:48;;;;;;;2.60;2.40;;;24.70;97.20;;;;;;1748012;28;20206;-76
2022/07/04 09:15:43;;;;;;;3.35;2.67;;;24.70;97.20;;;;;;1747896;28;20202;-76
2022/07/04 09:16:34;;;;;;;3.28;2.42;;;24.70;97.20;;;;;;1747536;28;20203;-77
2022/07/04 09:17:26;;;;;;;3.10;2.60;;;24.70;97.20;;;;;;1748039;28;20677;-76
2022/07/04 09:18:25;;;;;;;3.60;2.35;;;24.70;97.20;;;;;;1747811;28;20471;-76
2022/07/04 09:19:20;;;;;;;7.50;2.93;;;24.80;97.20;;;;;;1747926;28;20206;-77
2022/07/04 09:20:16;;;;;;;4.18;2.60;;;24.80;97.20;;;;;;1747927;28;20494;-76
2022/07/04 09:21:10;;;;;;;6.07;2.95;;;24.80;97.20;;;;;;1747865;28;20198;-77
2022/07/04 09:22:11;;;;;;;2.50;2.30;;;24.80;97.20;;;;;;1747660;28;20579;-76
2022/07/04 09:23:18;;;;;;;3.92;2.88;;;24.90;97.20;;;;;;1747975;28;20205;-76
2022/07/04 09:24:10;;;;;;;2.78;2.40;;;24.90;97.20;;;;;;1747993;28;20235;-77
2022/07/04 09:25:05;;;;;;;4.35;2.65;;;24.90;97.20;;;;;;1747845;28;20205;-76
2022/07/04 09:26:13;;;;;;;2.55;2.28;;;25.00;97.20;;;;;;1747807;28;20296;-77
2022/07/04 09:27:04;;;;;;;2.70;2.40;;;25.00;97.20;;;;;;1747556;28;20289;-76
2022/07/04 09:27:57;;;;;;;4.00;2.30;;;25.00;97.20;;;;;;1747773;28;20244;-76
2022/07/04 09:28:52;;;;;;;4.18;2.40;;;25.10;97.20;;;;;;1747829;28;21014;-77
2022/07/04 09:29:54;;;;;;;2.63;2.38;;;25.10;97.20;;;;;;1747881;28;20202;-76
2022/07/04 09:30:47;;;;;;;2.78;2.40;;;25.10;97.20;;;;;;1747866;28;20355;-77
2022/07/04 09:31:40;;;;;;;5.88;2.60;;;25.20;97.20;;;;;;1747695;28;20280;-76
2022/07/04 09:32:38;;;;;;;3.65;2.40;;;25.20;97.20;;;;;;1747619;28;20194;-77
2022/07/04 09:33:47;;;;;;;7.38;2.55;;;25.30;97.20;;;;;;1747934;28;20566;-76
2022/07/04 09:34:55;;;;;;;2.47;2.10;;;25.40;97.20;;;;;;1747825;28;20221;-76
2022/07/04 09:35:46;;;;;;;4.38;2.55;;;25.40;97.20;;;;;;1747939;28;20195;-76
2022/07/04 09:36:42;;;;;;;2.60;2.40;;;25.50;97.20;;;;;;1747492;28;20256;-77
2022/07/04 09:37:42;;;;;;;2.95;2.65;;;25.50;97.20;;;;;;1747932;28;20477;-76
2022/07/04 09:38:33;;;;;;;4.55;2.63;;;25.50;97.20;;;;;;1747836;28;20698;-77
2022/07/04 09:39:24;;;;;;;3.33;2.40;;;25.60;97.20;;;;;;1747875;28;20202;-76
2022/07/04 09:40:25;;;;;;;3.43;2.50;;;25.60;97.20;;;;;;1747870;28;20293;-77